createdAt,value
2018-05-25T00:01:57.074Z,92.80
2018-05-25T00:04:24.610Z,92.80
2018-05-25T00:06:52.910Z,93.20
2018-05-25T00:09:21.278Z,92.90
2018-05-25T00:11:49.563Z,93.00
2018-05-25T00:14:17.845Z,92.80
2018-05-25T00:16:46.154Z,92.90
2018-05-25T00:19:13.678Z,92.90
2018-05-25T00:21:42.034Z,92.80
2018-05-25T00:24:09.581Z,92.80
2018-05-25T00:26:37.177Z,92.80
2018-05-25T00:29:05.471Z,93.20
2018-05-25T00:31:33.019Z,93.20
2018-05-25T00:34:01.320Z,92.90
2018-05-25T00:36:29.605Z,93.00
2018-05-25T00:38:57.911Z,92.60
2018-05-25T00:41:25.432Z,92.60
2018-05-25T00:43:52.950Z,92.60
2018-05-25T00:46:20.510Z,92.30
2018-05-25T00:48:48.025Z,92.40
2018-05-25T00:51:15.549Z,92.70
2018-05-25T00:53:43.213Z,92.90
2018-05-25T00:56:10.744Z,92.70
2018-05-25T00:58:39.029Z,92.80
2018-05-25T01:01:07.361Z,92.60
2018-05-25T01:03:34.880Z,92.60
2018-05-25T01:06:03.159Z,92.60
2018-05-25T01:08:31.469Z,92.50
2018-05-25T01:10:58.995Z,92.50
2018-05-25T01:13:27.281Z,92.50
2018-05-25T01:15:55.593Z,93.20
2018-05-25T01:18:23.101Z,92.90
2018-05-25T01:20:50.633Z,93.00
2018-05-25T01:23:18.188Z,93.10
2018-05-25T01:25:45.713Z,92.90
2018-05-25T01:28:14.039Z,93.30
2018-05-25T01:30:41.685Z,93.30
2018-05-25T01:33:09.209Z,93.70
2018-05-25T01:35:36.731Z,93.20
2018-05-25T01:38:04.275Z,93.20
2018-05-25T01:40:31.821Z,93.20
2018-05-25T01:42:59.378Z,93.10
2018-05-25T01:45:27.695Z,93.00
2018-05-25T01:47:55.214Z,92.90
2018-05-25T01:50:22.743Z,93.10
2018-05-25T01:52:50.306Z,93.10
2018-05-25T01:55:17.833Z,92.80
2018-05-25T01:57:46.109Z,93.20
2018-05-25T02:00:14.418Z,93.30
2018-05-25T02:02:41.929Z,93.20
2018-05-25T02:05:09.445Z,93.40
2018-05-25T02:07:36.992Z,93.20
2018-05-25T02:10:04.508Z,93.20
2018-05-25T02:12:32.031Z,92.90
2018-05-25T02:14:59.594Z,93.20
2018-05-25T02:17:27.113Z,93.20
2018-05-25T02:19:54.638Z,93.30
2018-05-25T02:22:22.182Z,93.20
2018-05-25T02:24:49.770Z,93.30
2018-05-25T02:27:18.146Z,93.00
2018-05-25T02:29:45.792Z,93.20
2018-05-25T02:32:14.073Z,93.30
2018-05-25T02:34:41.658Z,93.30
2018-05-25T02:37:09.205Z,93.20
2018-05-25T02:39:36.729Z,93.10
2018-05-25T02:42:05.026Z,93.10
2018-05-25T02:44:32.650Z,93.10
2018-05-25T02:47:00.934Z,92.50
2018-05-25T02:49:28.490Z,92.50
2018-05-25T02:51:56.077Z,92.60
2018-05-25T02:54:23.597Z,92.60
2018-05-25T02:56:51.891Z,92.60
2018-05-25T02:59:19.445Z,92.60
2018-05-25T03:01:46.968Z,92.60
2018-05-25T03:04:14.487Z,92.70
2018-05-25T03:06:42.026Z,92.80
2018-05-25T03:09:10.322Z,92.90
2018-05-25T03:11:37.842Z,92.90
2018-05-25T03:14:05.386Z,93.00
2018-05-25T03:16:32.909Z,92.90
2018-05-25T03:19:00.438Z,92.80
2018-05-25T03:21:29.585Z,93.00
2018-05-25T03:23:57.104Z,93.00
2018-05-25T03:26:25.400Z,93.10
2018-05-25T03:28:53.709Z,92.90
2018-05-25T03:31:21.322Z,92.90
2018-05-25T03:33:48.942Z,93.00
2018-05-25T03:36:16.507Z,93.10
2018-05-25T03:38:44.020Z,92.90
2018-05-25T03:41:11.543Z,92.90
2018-05-25T03:43:39.089Z,93.00
2018-05-25T03:46:07.370Z,93.00
2018-05-25T03:48:34.897Z,93.00
2018-05-25T03:51:02.462Z,93.10
2018-05-25T03:53:29.978Z,93.00
2018-05-25T03:55:57.535Z,92.90
2018-05-25T03:58:37.038Z,92.90
2018-05-25T04:01:17.094Z,93.30
2018-05-25T04:03:45.393Z,93.00
2018-05-25T04:06:12.915Z,93.00
2018-05-25T04:08:41.401Z,93.60
2018-05-25T04:11:08.974Z,93.60
2018-05-25T04:13:36.498Z,93.20
2018-05-25T04:16:04.022Z,93.00
2018-05-25T04:18:32.353Z,93.20
2018-05-25T04:20:59.876Z,93.20
2018-05-25T04:23:29.018Z,93.20
2018-05-25T04:25:56.576Z,93.20
2018-05-25T04:28:24.101Z,93.10
2018-05-25T04:30:51.637Z,93.20
2018-05-25T04:33:19.330Z,92.90
2018-05-25T04:35:47.626Z,93.10
2018-05-25T04:38:15.166Z,93.10
2018-05-25T04:40:43.593Z,93.20
2018-05-25T04:43:11.156Z,93.00
2018-05-25T04:45:39.438Z,92.40
2018-05-25T04:48:06.985Z,92.40
2018-05-25T04:50:34.509Z,92.60
2018-05-25T04:53:02.045Z,92.70
2018-05-25T04:55:29.613Z,92.40
2018-05-25T04:57:57.133Z,92.50
2018-05-25T05:00:25.411Z,91.90
2018-05-25T05:02:53.717Z,91.70
2018-05-25T05:05:21.271Z,91.70
2018-05-25T05:07:48.793Z,92.20
2018-05-25T05:10:17.118Z,92.10
2018-05-25T05:12:44.639Z,92.10
2018-05-25T05:15:12.151Z,91.60
2018-05-25T05:17:39.709Z,92.00
2018-05-25T05:20:07.221Z,91.20
2018-05-25T05:22:34.743Z,91.70
2018-05-25T05:25:02.290Z,91.60
2018-05-25T05:27:29.853Z,90.80
2018-05-25T05:29:58.193Z,91.10
2018-05-25T05:32:25.750Z,91.10
2018-05-25T05:34:53.342Z,91.50
2018-05-25T05:37:21.618Z,90.10
2018-05-25T05:39:49.158Z,90.10
2018-05-25T05:42:16.704Z,91.00
2018-05-25T05:44:44.238Z,90.20
2018-05-25T05:47:12.552Z,91.20
2018-05-25T05:49:40.082Z,91.20
2018-05-25T05:52:08.365Z,89.30
2018-05-25T05:54:36.678Z,89.50
2018-05-25T05:57:04.201Z,89.40
2018-05-25T05:59:31.724Z,88.20
2018-05-25T06:01:59.266Z,87.60
2018-05-25T06:04:26.841Z,87.30
2018-05-25T06:06:55.099Z,87.10
2018-05-25T06:09:22.649Z,87.00
2018-05-25T06:11:50.929Z,87.60
2018-05-25T06:14:19.205Z,87.00
2018-05-25T06:16:47.631Z,87.80
2018-05-25T06:19:15.145Z,87.70
2018-05-25T06:21:42.670Z,86.00
2018-05-25T06:24:10.217Z,84.10
2018-05-25T06:26:37.740Z,83.90
2018-05-25T06:29:05.275Z,82.80
2018-05-25T06:31:32.818Z,84.00
2018-05-25T06:34:00.374Z,83.20
2018-05-25T06:36:28.031Z,83.10
2018-05-25T06:38:55.582Z,83.60
2018-05-25T06:41:23.859Z,82.00
2018-05-25T06:43:52.140Z,83.30
2018-05-25T06:46:20.460Z,82.60
2018-05-25T06:48:47.987Z,82.60
2018-05-25T06:51:16.284Z,82.10
2018-05-25T06:53:44.613Z,79.20
2018-05-25T06:56:12.135Z,79.10
2018-05-25T06:58:39.688Z,81.80
2018-05-25T07:01:08.018Z,80.50
2018-05-25T07:03:35.551Z,80.50
2018-05-25T07:06:03.090Z,81.40
2018-05-25T07:08:31.409Z,76.50
2018-05-25T07:10:59.026Z,76.50
2018-05-25T07:13:27.353Z,68.30
2018-05-25T07:15:55.682Z,67.50
2018-05-25T07:18:23.205Z,67.50
2018-05-25T07:20:50.749Z,67.70
2018-05-25T07:23:18.321Z,65.60
2018-05-25T07:25:45.850Z,67.20
2018-05-25T07:28:14.261Z,71.30
2018-05-25T07:30:41.821Z,70.90
2018-05-25T07:33:09.357Z,71.90
2018-05-25T07:35:36.929Z,71.90
2018-05-25T07:38:05.331Z,69.60
2018-05-25T07:40:33.783Z,63.50
2018-05-25T07:43:02.098Z,61.40
2018-05-25T07:45:30.477Z,58.80
2018-05-25T07:47:58.764Z,55.70
2018-05-25T07:50:26.290Z,55.60
2018-05-25T07:52:53.850Z,58.20
2018-05-25T07:55:21.391Z,53.40
2018-05-25T07:57:48.906Z,48.30
2018-05-25T08:00:17.280Z,44.90
2018-05-25T08:02:45.518Z,46.10
2018-05-25T08:05:13.073Z,46.10
2018-05-25T08:07:40.613Z,47.60
2018-05-25T08:10:08.195Z,45.70
2018-05-25T08:12:35.760Z,42.80
2018-05-25T08:15:03.310Z,43.70
2018-05-25T08:17:30.849Z,44.50
2018-05-25T08:19:58.370Z,46.20
2018-05-25T08:22:25.917Z,42.20
2018-05-25T08:24:53.454Z,42.60
2018-05-25T08:27:21.752Z,42.00
2018-05-25T08:29:49.310Z,41.90
2018-05-25T08:32:16.845Z,44.10
2018-05-25T08:34:44.369Z,47.30
2018-05-25T08:37:11.917Z,48.10
2018-05-25T08:39:39.538Z,53.20
2018-05-25T08:42:07.833Z,55.30
2018-05-25T08:44:36.157Z,54.70
2018-05-25T08:47:03.681Z,54.60
2018-05-25T08:49:31.970Z,55.30
2018-05-25T08:51:59.541Z,55.30
2018-05-25T08:54:27.936Z,50.40
2018-05-25T08:56:55.489Z,50.30
2018-05-25T08:59:23.498Z,46.70
2018-05-25T09:01:51.021Z,45.30
2018-05-25T09:04:19.333Z,48.20
2018-05-25T09:06:46.932Z,48.10
2018-05-25T09:09:14.448Z,44.50
2018-05-25T09:11:41.965Z,42.40
2018-05-25T09:14:10.917Z,42.10
2018-05-25T09:16:38.473Z,42.60
2018-05-25T09:19:05.996Z,44.50
2018-05-25T09:21:34.382Z,45.90
2018-05-25T09:24:01.902Z,46.50
2018-05-25T09:26:29.430Z,48.60
2018-05-25T09:28:57.746Z,50.20
2018-05-25T09:31:25.264Z,50.10
2018-05-25T09:33:53.566Z,47.00
2018-05-25T09:36:21.903Z,41.50
2018-05-25T09:38:49.427Z,41.40
2018-05-25T09:41:17.305Z,40.60
2018-05-25T09:43:44.929Z,35.90
2018-05-25T09:46:12.454Z,36.10
2018-05-25T09:48:39.978Z,34.30
2018-05-25T09:51:08.278Z,32.90
2018-05-25T09:53:35.798Z,32.80
2018-05-25T09:56:03.321Z,35.70
2018-05-25T09:58:30.982Z,38.80
2018-05-25T10:00:58.512Z,41.50
2018-05-25T10:03:26.787Z,43.60
2018-05-25T10:05:56.123Z,41.60
2018-05-25T10:08:23.645Z,41.40
2018-05-25T10:10:51.185Z,36.40
2018-05-25T10:13:18.749Z,35.80
2018-05-25T10:15:46.269Z,34.20
2018-05-25T10:18:13.810Z,31.90
2018-05-25T10:20:41.352Z,29.90
2018-05-25T10:23:09.661Z,34.60
2018-05-25T10:25:37.948Z,36.80
2018-05-25T10:28:06.265Z,33.50
2018-05-25T10:30:34.556Z,31.20
2018-05-25T10:33:02.117Z,31.20
2018-05-25T10:35:30.260Z,31.00
2018-05-25T10:37:57.793Z,28.70
2018-05-25T10:40:25.303Z,27.30
2018-05-25T10:42:53.903Z,25.90
2018-05-25T10:45:21.415Z,25.60
2018-05-25T10:47:48.934Z,24.80
2018-05-25T10:50:16.479Z,24.60
2018-05-25T10:52:43.989Z,25.70
2018-05-25T10:55:11.502Z,28.30
2018-05-25T10:57:39.062Z,33.40
2018-05-25T11:00:07.349Z,40.50
2018-05-25T11:02:34.874Z,40.40
2018-05-25T11:05:02.472Z,43.60
2018-05-25T11:07:30.745Z,46.90
2018-05-25T11:09:59.055Z,49.30
2018-05-25T11:12:26.609Z,49.20
2018-05-25T11:14:54.132Z,44.50
2018-05-25T11:17:21.647Z,44.00
2018-05-25T11:19:49.260Z,44.80
2018-05-25T11:22:16.784Z,46.00
2018-05-25T11:24:44.298Z,47.40
2018-05-25T11:27:11.838Z,46.40
2018-05-25T11:29:39.353Z,45.80
2018-05-25T11:32:06.867Z,48.90
2018-05-25T11:34:34.429Z,52.10
2018-05-25T11:37:02.001Z,55.50
2018-05-25T11:39:29.574Z,56.10
2018-05-25T11:41:57.110Z,57.80
2018-05-25T11:44:24.702Z,59.70
2018-05-25T11:46:52.222Z,60.90
2018-05-25T11:49:19.757Z,61.40
2018-05-25T11:51:48.034Z,50.70
2018-05-25T11:54:16.309Z,47.00
2018-05-25T11:56:44.604Z,44.90
2018-05-25T11:59:12.893Z,39.50
2018-05-25T12:01:40.419Z,39.50
2018-05-25T12:04:07.966Z,39.90
2018-05-25T12:06:35.533Z,38.60
2018-05-25T12:09:03.058Z,38.50
2018-05-25T12:11:30.605Z,36.90
2018-05-25T12:13:58.885Z,32.80
2018-05-25T12:16:27.192Z,33.20
2018-05-25T12:18:54.770Z,33.10
2018-05-25T12:21:23.144Z,31.30
2018-05-25T12:23:50.653Z,31.30
2018-05-25T12:26:18.238Z,33.20
2018-05-25T12:28:46.522Z,32.20
2018-05-25T12:31:14.811Z,34.60
2018-05-25T12:33:43.136Z,37.10
2018-05-25T12:36:10.680Z,37.10
2018-05-25T12:38:38.199Z,40.50
2018-05-25T12:41:05.743Z,42.40
2018-05-25T12:43:33.245Z,43.40
2018-05-25T12:46:01.706Z,47.10
2018-05-25T12:48:29.257Z,47.10
2018-05-25T12:50:56.772Z,48.90
2018-05-25T12:53:25.058Z,52.10
2018-05-25T12:55:52.602Z,52.00
2018-05-25T12:58:20.890Z,55.50
2018-05-25T13:00:49.169Z,57.60
2018-05-25T13:03:17.479Z,59.80
2018-05-25T13:05:44.992Z,59.70
2018-05-25T13:08:12.510Z,63.60
2018-05-25T13:10:40.055Z,64.90
2018-05-25T13:13:07.612Z,65.00
2018-05-25T13:18:04.066Z,65.20
2018-05-25T13:20:31.574Z,66.50
2018-05-25T13:22:59.101Z,68.50
2018-05-25T13:25:27.413Z,65.90
2018-05-25T13:27:54.943Z,65.80
2018-05-25T13:30:23.214Z,65.00
2018-05-25T13:32:51.529Z,66.40
2018-05-25T13:35:19.045Z,66.30
2018-05-25T13:37:46.555Z,68.90
2018-05-25T13:40:14.095Z,67.60
2018-05-25T13:42:41.649Z,68.70
2018-05-25T13:45:09.928Z,69.60
2018-05-25T13:47:37.613Z,68.90
2018-05-25T13:50:05.937Z,67.10
2018-05-25T13:52:33.462Z,67.10
2018-05-25T13:55:01.773Z,65.90
2018-05-25T13:57:29.305Z,65.90
2018-05-25T13:59:57.621Z,66.00
2018-05-25T14:02:25.275Z,66.10
2018-05-25T14:04:52.797Z,64.80
2018-05-25T14:07:21.126Z,64.30
2018-05-25T14:09:48.764Z,64.00
2018-05-25T14:12:17.049Z,64.60
2018-05-25T14:14:45.325Z,66.40
2018-05-25T14:17:13.729Z,64.90
2018-05-25T14:19:41.301Z,64.90
2018-05-25T14:22:08.829Z,67.30
2018-05-25T14:24:37.139Z,64.50
2018-05-25T14:27:04.689Z,64.40
2018-05-25T14:29:32.979Z,65.60
2018-05-25T14:32:00.550Z,65.50
2018-05-25T14:34:28.086Z,67.00
2018-05-25T14:36:56.371Z,68.50
2018-05-25T14:39:24.685Z,67.70
2018-05-25T14:41:52.969Z,69.20
2018-05-25T14:44:20.493Z,69.00
2018-05-25T14:46:48.912Z,67.20
2018-05-25T14:49:16.570Z,67.20
2018-05-25T14:51:44.105Z,68.20
2018-05-25T14:54:11.678Z,67.50
2018-05-25T14:56:39.973Z,66.30
2018-05-25T14:59:07.509Z,66.30
2018-05-25T15:01:35.054Z,65.50
2018-05-25T15:04:02.570Z,64.60
2018-05-25T15:06:30.850Z,63.70
2018-05-25T15:08:58.405Z,63.60
2018-05-25T15:11:26.812Z,63.00
2018-05-25T15:13:54.335Z,63.00
2018-05-25T15:16:21.871Z,64.50
2018-05-25T15:18:49.432Z,64.20
2018-05-25T15:21:17.023Z,63.40
2018-05-25T15:23:44.560Z,65.40
2018-05-25T15:26:12.081Z,64.70
2018-05-25T15:28:39.643Z,62.40
2018-05-25T15:31:07.988Z,63.40
2018-05-25T15:33:35.511Z,63.40
2018-05-25T15:36:03.029Z,64.00
2018-05-25T15:38:30.577Z,65.40
2018-05-25T15:40:58.113Z,67.80
2018-05-25T15:43:25.666Z,69.80
2018-05-25T15:45:53.234Z,70.10
2018-05-25T15:48:20.753Z,70.30
2018-05-25T15:50:48.307Z,71.10
2018-05-25T15:53:15.857Z,70.50
2018-05-25T15:55:43.373Z,70.60
2018-05-25T15:58:11.702Z,72.10
2018-05-25T16:00:39.240Z,72.20
2018-05-25T16:03:06.813Z,71.00
2018-05-25T16:05:34.333Z,70.90
2018-05-25T16:08:02.636Z,72.00
2018-05-25T16:10:30.162Z,71.90
2018-05-25T16:12:57.674Z,72.40
2018-05-25T16:15:25.214Z,72.90
2018-05-25T16:17:53.520Z,73.30
2018-05-25T16:20:21.058Z,73.30
2018-05-25T16:22:49.425Z,74.50
2018-05-25T16:25:17.727Z,74.70
2018-05-25T16:27:46.008Z,74.90
2018-05-25T16:30:14.316Z,75.30
2018-05-25T16:32:41.879Z,75.20
2018-05-25T16:35:09.405Z,75.20
2018-05-25T16:37:37.711Z,75.80
2018-05-25T16:40:05.230Z,75.70
2018-05-25T16:42:32.753Z,76.00
2018-05-25T16:45:00.310Z,76.30
2018-05-25T16:47:27.828Z,77.20
2018-05-25T16:49:55.361Z,78.10
2018-05-25T16:52:23.154Z,78.70
2018-05-25T16:54:50.781Z,78.70
2018-05-25T16:57:18.336Z,79.10
2018-05-25T16:59:46.709Z,77.10
2018-05-25T17:02:14.254Z,77.10
2018-05-25T17:04:41.766Z,77.50
2018-05-25T17:07:09.297Z,79.20
2018-05-25T17:09:37.575Z,81.10
2018-05-25T17:12:05.854Z,81.00
2018-05-25T17:14:34.166Z,81.70
2018-05-25T17:17:01.677Z,81.60
2018-05-25T17:19:29.189Z,82.50
2018-05-25T17:21:56.724Z,81.90
2018-05-25T17:24:25.052Z,82.50
2018-05-25T17:26:52.577Z,82.40
2018-05-25T17:29:20.167Z,83.30
2018-05-25T17:31:47.693Z,82.90
2018-05-25T17:34:15.202Z,81.90
2018-05-25T17:36:42.744Z,83.30
2018-05-25T17:39:11.031Z,82.40
2018-05-25T17:41:39.323Z,82.80
2018-05-25T17:44:06.859Z,82.80
2018-05-25T17:46:35.150Z,82.80
2018-05-25T17:49:03.444Z,81.80
2018-05-25T17:51:30.990Z,81.60
2018-05-25T17:53:59.473Z,82.80
2018-05-25T17:56:27.762Z,82.30
2018-05-25T17:58:56.126Z,82.80
2018-05-25T18:01:24.468Z,84.00
2018-05-25T18:03:52.014Z,83.20
2018-05-25T18:06:19.554Z,83.30
2018-05-25T18:08:47.870Z,82.00
2018-05-25T18:11:15.421Z,81.90
2018-05-25T18:13:42.958Z,78.70
2018-05-25T18:16:11.234Z,79.70
2018-05-25T18:18:39.507Z,79.00
2018-05-25T18:21:07.889Z,79.50
2018-05-25T18:23:36.211Z,80.00
2018-05-25T18:26:03.721Z,79.90
2018-05-25T18:28:31.261Z,78.90
2018-05-25T18:30:58.782Z,79.20
2018-05-25T18:33:27.065Z,80.10
2018-05-25T18:35:55.375Z,79.30
2018-05-25T18:38:22.957Z,79.90
2018-05-25T18:40:50.499Z,79.40
2018-05-25T18:43:18.064Z,78.50
2018-05-25T18:45:45.582Z,78.60
2018-05-25T18:48:13.093Z,79.20
2018-05-25T18:50:40.683Z,79.70
2018-05-25T18:53:08.182Z,79.00
2018-05-25T18:55:35.817Z,79.40
2018-05-25T18:58:03.349Z,80.70
2018-05-25T19:00:30.859Z,79.90
2018-05-25T19:02:58.365Z,80.30
2018-05-25T19:05:26.694Z,81.20
2018-05-25T19:07:54.201Z,81.10
2018-05-25T19:10:22.478Z,81.00
2018-05-25T19:12:50.785Z,81.70
2018-05-25T19:15:18.309Z,81.50
2018-05-25T19:17:45.820Z,81.70
2018-05-25T19:20:13.362Z,81.90
2018-05-25T19:22:40.897Z,82.10
2018-05-25T19:25:08.467Z,82.90
2018-05-25T19:27:36.018Z,82.90
2018-05-25T19:30:03.533Z,83.10
2018-05-25T19:32:31.044Z,83.00
2018-05-25T19:34:58.668Z,82.80
2018-05-25T19:37:26.957Z,83.40
2018-05-25T19:39:54.478Z,83.30
2018-05-25T19:42:22.787Z,85.20
2018-05-25T19:44:50.300Z,84.60
2018-05-25T19:47:19.353Z,85.40
2018-05-25T19:49:46.913Z,85.40
2018-05-25T19:52:14.430Z,85.20
2018-05-25T19:54:41.942Z,85.00
2018-05-25T19:57:09.632Z,85.70
2018-05-25T19:59:37.171Z,86.60
2018-05-25T20:02:04.693Z,87.40
2018-05-25T20:04:32.232Z,86.90
2018-05-25T20:06:59.747Z,87.10
2018-05-25T20:09:28.041Z,87.20
2018-05-25T20:11:55.611Z,87.10
2018-05-25T20:14:23.173Z,87.30
2018-05-25T20:16:50.689Z,87.80
2018-05-25T20:19:18.312Z,88.50
2018-05-25T20:21:46.650Z,88.80
2018-05-25T20:24:15.046Z,88.70
2018-05-25T20:26:43.355Z,88.70
2018-05-25T20:29:10.869Z,88.60
2018-05-25T20:31:38.438Z,88.50
2018-05-25T20:34:05.993Z,88.10
2018-05-25T20:36:33.515Z,88.10
2018-05-25T20:39:01.052Z,88.60
2018-05-25T20:41:29.354Z,88.90
2018-05-25T20:43:56.933Z,88.80
2018-05-25T20:46:24.505Z,89.50
2018-05-25T20:48:52.062Z,88.90
2018-05-25T20:51:20.387Z,89.50
2018-05-25T20:53:47.914Z,89.50
2018-05-25T20:56:15.468Z,89.60
2018-05-25T20:58:43.196Z,90.00
2018-05-25T21:01:10.741Z,90.00
2018-05-25T21:03:38.283Z,89.60
2018-05-25T21:06:05.810Z,89.60
2018-05-25T21:08:34.215Z,89.50
2018-05-25T21:11:01.745Z,89.40
2018-05-25T21:13:30.019Z,89.30
2018-05-25T21:15:58.361Z,89.60
2018-05-25T21:18:25.909Z,89.40
2018-05-25T21:20:53.434Z,89.60
2018-05-25T21:23:20.956Z,89.70
2018-05-25T21:25:49.275Z,90.10
2018-05-25T21:28:16.800Z,90.00
2018-05-25T21:30:44.347Z,90.00
2018-05-25T21:33:11.886Z,90.10
2018-05-25T21:35:40.162Z,90.80
2018-05-25T21:38:08.458Z,90.70
2018-05-25T21:40:35.994Z,90.60
2018-05-25T21:43:03.519Z,90.20
2018-05-25T21:45:31.050Z,90.00
2018-05-25T21:47:58.591Z,90.60
2018-05-25T21:50:26.877Z,90.30
2018-05-25T21:52:55.177Z,90.60
2018-05-25T21:55:22.729Z,90.20
2018-05-25T21:57:51.112Z,90.30
2018-05-25T22:00:19.475Z,90.30
2018-05-25T22:02:47.026Z,90.20
2018-05-25T22:05:14.550Z,90.50
2018-05-25T22:07:42.081Z,90.10
2018-05-25T22:10:10.395Z,90.40
2018-05-25T22:12:37.924Z,90.30
2018-05-25T22:15:05.529Z,90.60
2018-05-25T22:17:33.072Z,90.40
2018-05-25T22:20:01.369Z,90.00
2018-05-25T22:22:28.881Z,90.00
2018-05-25T22:24:56.467Z,90.00
2018-05-25T22:27:24.006Z,90.70
2018-05-25T22:29:51.577Z,90.60
2018-05-25T22:32:19.155Z,90.50
2018-05-25T22:34:47.446Z,90.60
2018-05-25T22:37:16.706Z,90.70
2018-05-25T22:39:45.142Z,90.60
2018-05-25T22:42:12.937Z,90.80
2018-05-25T22:44:52.457Z,90.80
2018-05-25T22:47:31.831Z,90.90
2018-05-25T22:50:12.028Z,90.70
2018-05-25T22:52:45.504Z,90.80
2018-05-25T22:55:13.047Z,90.80
2018-05-25T22:57:40.574Z,90.60
2018-05-25T23:00:08.090Z,90.90
2018-05-25T23:02:36.513Z,90.90
2018-05-25T23:05:04.857Z,90.60
2018-05-25T23:07:33.146Z,90.80
2018-05-25T23:10:00.711Z,90.80
2018-05-25T23:12:30.538Z,90.50
2018-05-25T23:14:58.063Z,90.50
2018-05-25T23:17:25.613Z,91.00
2018-05-25T23:19:53.909Z,91.30
2018-05-25T23:22:21.559Z,91.30
2018-05-25T23:24:49.116Z,91.10
2018-05-25T23:27:16.634Z,90.90
2018-05-25T23:29:44.937Z,91.30
2018-05-25T23:32:13.263Z,90.90
2018-05-25T23:34:40.799Z,90.90
2018-05-25T23:37:09.092Z,90.70
2018-05-25T23:39:37.586Z,90.70
2018-05-25T23:42:05.098Z,90.60
2018-05-25T23:44:32.650Z,90.60
2018-05-25T23:47:00.239Z,90.70
2018-05-25T23:49:28.555Z,90.70
2018-05-25T23:51:56.073Z,90.70
2018-05-25T23:54:24.413Z,90.90
2018-05-25T23:56:51.976Z,90.90
2018-05-25T23:59:20.354Z,90.90
